createdAt,value
2018-06-14T00:00:50.744Z,59.00
2018-06-14T00:03:19.298Z,59.00
2018-06-14T00:05:47.971Z,59.80
2018-06-14T00:08:16.571Z,59.20
2018-06-14T00:10:45.134Z,59.40
2018-06-14T00:13:13.739Z,59.40
2018-06-14T00:15:42.343Z,59.20
2018-06-14T00:18:10.884Z,59.00
2018-06-14T00:20:39.421Z,59.00
2018-06-14T00:23:08.061Z,59.00
2018-06-14T00:25:36.622Z,59.40
2018-06-14T00:28:05.242Z,59.90
2018-06-14T00:30:33.757Z,59.80
2018-06-14T00:33:02.307Z,59.60
2018-06-14T00:35:30.858Z,59.70
2018-06-14T00:37:59.454Z,59.50
2018-06-14T00:40:28.080Z,59.40
2018-06-14T00:42:56.715Z,59.40
2018-06-14T00:45:25.363Z,59.50
2018-06-14T00:47:53.949Z,59.50
2018-06-14T00:50:22.495Z,59.90
2018-06-14T00:52:51.075Z,60.00
2018-06-14T00:55:19.584Z,59.90
2018-06-14T00:57:48.154Z,60.30
2018-06-14T01:00:16.895Z,60.30
2018-06-14T01:02:45.422Z,60.30
2018-06-14T01:07:42.248Z,60.20
2018-06-14T01:10:10.777Z,61.50
2018-06-14T01:12:39.265Z,61.40
2018-06-14T01:15:07.847Z,61.20
2018-06-14T01:17:36.431Z,61.40
2018-06-14T01:20:05.370Z,61.50
2018-06-14T01:22:33.908Z,61.10
2018-06-14T01:25:02.405Z,61.40
2018-06-14T01:27:30.919Z,61.30
2018-06-14T01:29:59.480Z,61.20
2018-06-14T01:32:28.064Z,61.30
2018-06-14T01:34:56.638Z,61.30
2018-06-14T01:38:30.032Z,61.40
2018-06-14T01:40:58.559Z,60.70
2018-06-14T01:43:27.195Z,60.10
2018-06-14T01:45:55.815Z,60.00
2018-06-14T01:48:24.321Z,60.20
2018-06-14T01:50:52.896Z,61.00
2018-06-14T01:53:21.414Z,60.40
2018-06-14T01:55:49.953Z,60.30
2018-06-14T01:58:18.549Z,61.00
2018-06-14T02:00:47.028Z,60.70
2018-06-14T02:03:15.534Z,60.30
2018-06-14T02:05:44.091Z,59.90
2018-06-14T02:08:12.560Z,59.90
2018-06-14T02:10:41.094Z,60.10
2018-06-14T02:13:09.570Z,60.50
2018-06-14T02:15:38.124Z,60.80
2018-06-14T02:18:06.760Z,60.70
2018-06-14T02:20:35.350Z,60.70
2018-06-14T02:23:03.901Z,60.30
2018-06-14T02:28:00.686Z,60.90
2018-06-14T02:30:29.247Z,61.10
2018-06-14T02:32:57.871Z,61.10
2018-06-14T02:35:26.461Z,61.10
2018-06-14T02:37:55.041Z,61.00
2018-06-14T02:40:23.602Z,60.90
2018-06-14T02:42:52.232Z,61.20
2018-06-14T02:45:20.817Z,61.10
2018-06-14T02:47:49.380Z,61.30
2018-06-14T02:50:17.928Z,61.50
2018-06-14T02:52:46.502Z,61.60
2018-06-14T02:55:15.092Z,61.60
2018-06-14T02:57:43.811Z,61.80
2018-06-14T03:00:13.332Z,61.70
2018-06-14T03:02:42.009Z,61.40
2018-06-14T03:05:10.560Z,61.40
2018-06-14T03:07:39.147Z,61.30
2018-06-14T03:10:07.757Z,61.10
2018-06-14T03:12:36.342Z,60.80
2018-06-14T03:15:05.322Z,60.90
2018-06-14T03:17:33.882Z,61.10
2018-06-14T03:20:02.527Z,61.20
2018-06-14T03:22:31.151Z,61.50
2018-06-14T03:24:59.673Z,61.30
2018-06-14T03:27:28.279Z,61.50
2018-06-14T03:29:56.779Z,62.30
2018-06-14T03:32:25.432Z,62.10
2018-06-14T03:34:53.990Z,62.10
2018-06-14T03:37:23.095Z,61.70
2018-06-14T03:39:51.679Z,61.90
2018-06-14T03:42:20.270Z,62.00
2018-06-14T03:44:48.857Z,62.30
2018-06-14T03:47:17.371Z,62.30
2018-06-14T03:49:46.279Z,62.10
2018-06-14T03:52:14.802Z,62.20
2018-06-14T03:54:43.345Z,62.10
2018-06-14T03:57:11.844Z,61.90
2018-06-14T03:59:40.403Z,61.90
2018-06-14T04:02:09.207Z,62.10
2018-06-14T04:04:37.775Z,62.00
2018-06-14T04:07:06.591Z,61.80
2018-06-14T04:09:35.175Z,62.00
2018-06-14T04:12:04.380Z,61.80
2018-06-14T04:14:32.955Z,61.60
2018-06-14T04:17:01.878Z,61.60
2018-06-14T04:19:31.187Z,61.50
2018-06-14T04:21:59.727Z,61.50
2018-06-14T04:24:28.348Z,61.60
2018-06-14T04:26:57.210Z,61.70
2018-06-14T04:29:25.770Z,61.60
2018-06-14T04:31:54.318Z,61.70
2018-06-14T04:34:23.721Z,61.70
2018-06-14T04:36:52.257Z,62.20
2018-06-14T04:39:20.820Z,62.00
2018-06-14T04:41:49.606Z,61.80
2018-06-14T04:44:18.260Z,61.80
2018-06-14T04:46:46.879Z,61.70
2018-06-14T04:49:15.392Z,61.90
2018-06-14T04:51:44.735Z,62.70
2018-06-14T04:54:13.247Z,63.30
2018-06-14T04:56:42.357Z,63.60
2018-06-14T04:59:11.270Z,63.80
2018-06-14T05:01:39.882Z,63.70
2018-06-14T05:04:08.568Z,63.50
2018-06-14T05:06:37.147Z,63.80
2018-06-14T05:09:09.183Z,63.70
2018-06-14T05:11:37.800Z,63.50
2018-06-14T05:14:06.452Z,63.20
2018-06-14T05:16:34.973Z,62.80
2018-06-14T05:19:03.557Z,62.80
2018-06-14T05:21:32.146Z,62.90
2018-06-14T05:24:00.727Z,62.40
2018-06-14T05:26:29.249Z,62.20
2018-06-14T05:28:57.841Z,62.40
2018-06-14T05:31:26.499Z,62.00
2018-06-14T05:33:55.263Z,61.90
2018-06-14T05:36:23.915Z,61.70
2018-06-14T05:38:52.620Z,62.00
2018-06-14T05:41:21.180Z,62.10
2018-06-14T05:43:49.807Z,62.20
2018-06-14T05:46:18.456Z,62.10
2018-06-14T05:48:47.108Z,61.50
2018-06-14T05:51:15.599Z,61.60
2018-06-14T05:53:44.202Z,61.30
2018-06-14T05:56:12.795Z,61.20
2018-06-14T05:58:41.454Z,60.90
2018-06-14T06:01:10.089Z,61.00
2018-06-14T06:03:38.779Z,60.70
2018-06-14T06:06:07.619Z,60.20
2018-06-14T06:08:36.336Z,60.10
2018-06-14T06:11:05.090Z,59.30
2018-06-14T06:13:33.630Z,59.30
2018-06-14T06:16:02.337Z,58.60
2018-06-14T06:18:30.958Z,58.50
2018-06-14T06:20:59.589Z,58.30
2018-06-14T06:23:28.282Z,57.90
2018-06-14T06:25:57.001Z,57.10
2018-06-14T06:28:25.745Z,57.30
2018-06-14T06:30:54.572Z,57.20
2018-06-14T06:33:23.564Z,57.40
2018-06-14T06:35:52.388Z,57.10
2018-06-14T06:38:21.113Z,56.40
2018-06-14T06:40:49.746Z,56.40
2018-06-14T06:43:18.589Z,56.10
2018-06-14T06:45:47.344Z,56.30
2018-06-14T06:48:15.927Z,56.40
2018-06-14T06:50:44.635Z,56.80
2018-06-14T06:53:13.337Z,56.80
2018-06-14T06:55:42.176Z,56.50
2018-06-14T06:58:10.968Z,56.40
2018-06-14T07:00:39.654Z,56.30
2018-06-14T07:03:08.764Z,56.10
2018-06-14T07:05:37.371Z,56.00
2018-06-14T07:08:06.007Z,55.60
2018-06-14T07:10:34.618Z,55.40
2018-06-14T07:13:03.328Z,55.30
2018-06-14T07:15:32.042Z,55.10
2018-06-14T07:18:00.960Z,55.00
2018-06-14T07:20:29.798Z,55.20
2018-06-14T07:23:00.083Z,55.30
2018-06-14T07:25:29.159Z,54.90
2018-06-14T07:27:58.033Z,54.30
2018-06-14T07:30:27.074Z,54.10
2018-06-14T07:32:56.133Z,52.90
2018-06-14T07:35:24.962Z,53.10
2018-06-14T07:37:53.575Z,52.90
2018-06-14T07:40:22.108Z,50.80
2018-06-14T07:42:50.835Z,51.10
2018-06-14T07:45:19.452Z,50.20
2018-06-14T07:47:50.057Z,49.70
2018-06-14T07:50:18.767Z,47.50
2018-06-14T07:52:47.572Z,45.10
2018-06-14T07:55:16.193Z,43.80
2018-06-14T07:57:45.699Z,42.70
2018-06-14T08:00:14.439Z,43.00
2018-06-14T08:02:43.065Z,43.20
2018-06-14T08:05:11.664Z,42.80
2018-06-14T08:07:40.319Z,43.40
2018-06-14T08:10:09.057Z,43.70
2018-06-14T08:12:37.643Z,42.10
2018-06-14T08:15:06.255Z,41.30
2018-06-14T08:20:03.099Z,43.30
2018-06-14T08:22:31.844Z,42.20
2018-06-14T08:25:00.385Z,42.00
2018-06-14T08:29:57.173Z,40.10
2018-06-14T08:32:25.929Z,40.60
2018-06-14T08:34:54.587Z,40.90
2018-06-14T08:37:27.399Z,41.50
2018-06-14T08:39:56.209Z,41.60
2018-06-14T08:42:25.635Z,41.60
2018-06-14T08:44:54.667Z,41.40
2018-06-14T08:47:23.433Z,41.60
2018-06-14T08:49:52.162Z,41.80
2018-06-14T08:54:49.639Z,41.60
2018-06-14T08:57:18.181Z,41.20
2018-06-14T08:59:46.816Z,40.90
2018-06-14T09:02:15.444Z,41.30
2018-06-14T09:04:44.502Z,41.10
2018-06-14T09:07:13.067Z,41.20
2018-06-14T09:09:41.842Z,40.70
2018-06-14T09:12:10.471Z,41.10
2018-06-14T09:14:39.234Z,41.20
2018-06-14T09:17:08.096Z,40.60
2018-06-14T09:19:36.769Z,41.50
2018-06-14T09:22:05.431Z,41.40
2018-06-14T09:24:34.287Z,41.70
2018-06-14T09:27:02.989Z,42.20
2018-06-14T09:29:31.642Z,42.70
2018-06-14T09:32:00.615Z,42.40
2018-06-14T09:34:29.327Z,43.10
2018-06-14T09:36:58.179Z,42.30
2018-06-14T09:39:41.238Z,42.10
2018-06-14T09:42:09.993Z,42.40
2018-06-14T09:44:38.770Z,42.50
2018-06-14T09:47:07.447Z,42.20
2018-06-14T09:49:36.120Z,41.90
2018-06-14T09:52:05.211Z,42.20
2018-06-14T09:54:33.795Z,42.30
2018-06-14T09:57:02.510Z,41.90
2018-06-14T09:59:31.128Z,42.10
2018-06-14T10:01:59.962Z,42.00
2018-06-14T10:04:28.874Z,42.10
2018-06-14T10:06:57.517Z,42.10
2018-06-14T10:09:26.679Z,42.20
2018-06-14T10:11:55.513Z,42.10
2018-06-14T10:14:24.244Z,42.50
2018-06-14T10:16:52.958Z,42.30
2018-06-14T10:19:21.549Z,42.30
2018-06-14T10:21:50.287Z,42.40
2018-06-14T10:24:19.125Z,42.10
2018-06-14T10:26:47.709Z,42.30
2018-06-14T10:29:16.344Z,42.30
2018-06-14T10:31:44.895Z,42.10
2018-06-14T10:36:44.259Z,42.70
2018-06-14T10:39:13.152Z,42.40
2018-06-14T10:41:42.672Z,43.20
2018-06-14T10:44:11.604Z,43.10
2018-06-14T10:46:40.135Z,41.90
2018-06-14T10:49:08.752Z,42.70
2018-06-14T10:51:37.307Z,43.10
2018-06-14T10:54:05.986Z,42.70
2018-06-14T10:56:34.603Z,42.80
2018-06-14T10:59:03.396Z,42.90
2018-06-14T11:01:32.627Z,42.40
2018-06-14T11:04:01.456Z,42.90
2018-06-14T11:06:30.105Z,42.90
2018-06-14T11:08:58.821Z,42.10
2018-06-14T11:11:27.446Z,42.00
2018-06-14T11:13:56.176Z,42.70
2018-06-14T11:16:24.744Z,43.00
2018-06-14T11:18:53.332Z,43.70
2018-06-14T11:21:22.524Z,43.10
2018-06-14T11:23:51.084Z,42.70
2018-06-14T11:26:24.708Z,42.10
2018-06-14T11:28:53.290Z,42.50
2018-06-14T11:31:21.879Z,42.30
2018-06-14T11:33:50.594Z,42.50
2018-06-14T11:36:19.407Z,42.80
2018-06-14T11:38:47.955Z,42.20
2018-06-14T11:41:16.586Z,42.90
2018-06-14T11:43:45.393Z,42.30
2018-06-14T11:46:14.078Z,42.10
2018-06-14T11:48:42.737Z,42.20
2018-06-14T11:51:11.335Z,42.50
2018-06-14T11:53:39.954Z,42.50
2018-06-14T11:56:08.619Z,42.30
2018-06-14T11:58:37.250Z,42.60
2018-06-14T12:01:06.040Z,42.50
2018-06-14T12:03:34.716Z,42.80
2018-06-14T12:06:03.412Z,42.70
2018-06-14T12:08:31.981Z,42.70
2018-06-14T12:11:00.645Z,43.00
2018-06-14T12:13:29.208Z,43.10
2018-06-14T12:15:57.855Z,43.70
2018-06-14T12:18:26.543Z,44.00
2018-06-14T12:20:55.395Z,43.80
2018-06-14T12:23:24.034Z,43.00
2018-06-14T12:25:53.099Z,43.30
2018-06-14T12:28:21.728Z,43.30
2018-06-14T12:30:50.297Z,43.70
2018-06-14T12:33:18.868Z,43.30
2018-06-14T12:35:47.479Z,43.50
2018-06-14T12:38:16.114Z,43.20
2018-06-14T12:40:44.823Z,44.30
2018-06-14T12:43:13.594Z,42.90
2018-06-14T12:45:42.419Z,42.60
2018-06-14T12:48:11.185Z,42.70
2018-06-14T12:50:39.848Z,43.70
2018-06-14T12:53:08.648Z,42.10
2018-06-14T12:55:37.242Z,42.70
2018-06-14T12:58:05.899Z,41.50
2018-06-14T13:00:34.506Z,41.10
2018-06-14T13:03:03.203Z,41.80
2018-06-14T13:05:31.880Z,42.50
2018-06-14T13:08:00.480Z,41.20
2018-06-14T13:10:29.558Z,42.10
2018-06-14T13:12:58.470Z,41.60
2018-06-14T13:15:32.402Z,41.40
2018-06-14T13:18:01.423Z,41.00
2018-06-14T13:20:30.975Z,41.80
2018-06-14T13:22:59.531Z,41.90
2018-06-14T13:25:28.247Z,42.10
2018-06-14T13:27:56.904Z,41.30
2018-06-14T13:30:25.466Z,41.80
2018-06-14T13:32:54.159Z,42.10
2018-06-14T13:35:23.578Z,41.50
2018-06-14T13:37:52.574Z,41.80
2018-06-14T13:40:21.315Z,41.90
2018-06-14T13:42:49.932Z,41.30
2018-06-14T13:45:18.583Z,41.30
2018-06-14T13:47:47.612Z,41.10
2018-06-14T13:50:16.191Z,41.30
2018-06-14T13:52:44.753Z,41.70
2018-06-14T13:55:15.664Z,41.00
2018-06-14T13:57:44.401Z,41.90
2018-06-14T14:00:13.028Z,41.60
2018-06-14T14:02:41.777Z,42.00
2018-06-14T14:05:10.382Z,41.60
2018-06-14T14:07:39.236Z,42.00
2018-06-14T14:10:07.887Z,42.40
2018-06-14T14:12:36.546Z,42.50
2018-06-14T14:15:05.692Z,42.50
2018-06-14T14:20:02.720Z,42.80
2018-06-14T14:22:31.628Z,42.60
2018-06-14T14:25:00.354Z,42.40
2018-06-14T14:27:28.920Z,42.90
2018-06-14T14:29:57.707Z,41.50
2018-06-14T14:32:26.426Z,41.70
2018-06-14T14:34:55.338Z,42.50
2018-06-14T14:37:23.988Z,42.80
2018-06-14T14:39:52.511Z,43.00
2018-06-14T14:42:21.156Z,41.90
2018-06-14T14:44:49.749Z,42.60
2018-06-14T14:47:18.464Z,42.70
2018-06-14T14:49:47.130Z,42.50
2018-06-14T14:52:15.809Z,42.50
2018-06-14T14:54:44.416Z,42.40
2018-06-14T14:57:13.049Z,43.10
2018-06-14T14:59:41.832Z,43.00
2018-06-14T15:04:39.312Z,42.00
2018-06-14T15:07:07.904Z,42.50
2018-06-14T15:09:36.523Z,43.30
2018-06-14T15:12:07.527Z,43.80
2018-06-14T15:14:37.013Z,43.90
2018-06-14T15:17:06.003Z,42.60
2018-06-14T15:19:34.652Z,43.10
2018-06-14T15:22:03.237Z,43.40
2018-06-14T15:24:31.977Z,42.00
2018-06-14T15:27:00.781Z,42.50
2018-06-14T15:29:29.399Z,42.40
2018-06-14T15:31:58.156Z,42.40
2018-06-14T15:34:26.849Z,42.80
2018-06-14T15:36:55.471Z,42.70
2018-06-14T15:39:24.187Z,42.70
2018-06-14T15:41:52.808Z,41.90
2018-06-14T15:44:21.475Z,42.80
2018-06-14T15:46:50.228Z,42.40
2018-06-14T15:49:18.908Z,42.10
2018-06-14T15:51:47.535Z,41.90
2018-06-14T15:54:16.959Z,42.50
2018-06-14T15:56:45.725Z,42.30
2018-06-14T15:59:15.638Z,43.00
2018-06-14T16:01:44.223Z,41.70
2018-06-14T16:04:13.324Z,41.10
2018-06-14T16:06:42.061Z,41.20
2018-06-14T16:09:11.877Z,40.30
2018-06-14T16:11:40.852Z,41.70
2018-06-14T16:14:09.554Z,40.50
2018-06-14T16:16:38.289Z,42.40
2018-06-14T16:19:06.884Z,42.10
2018-06-14T16:21:35.568Z,43.00
2018-06-14T16:24:04.389Z,40.80
2018-06-14T16:26:33.151Z,40.20
2018-06-14T16:29:01.738Z,40.30
2018-06-14T16:31:30.713Z,39.90
2018-06-14T16:33:59.493Z,40.10
2018-06-14T16:36:28.248Z,41.40
2018-06-14T16:38:56.834Z,40.00
2018-06-14T16:41:25.602Z,40.60
2018-06-14T16:43:54.215Z,40.70
2018-06-14T16:46:22.895Z,40.70
2018-06-14T16:48:51.664Z,42.20
2018-06-14T16:51:20.322Z,41.50
2018-06-14T16:53:48.958Z,41.80
2018-06-14T16:56:17.620Z,41.50
2018-06-14T16:58:46.444Z,42.80
2018-06-14T17:03:43.594Z,41.90
2018-06-14T17:06:13.316Z,42.00
2018-06-14T17:08:42.246Z,42.60
2018-06-14T17:11:25.544Z,41.20
2018-06-14T17:13:54.364Z,42.10
2018-06-14T17:16:23.037Z,42.80
2018-06-14T17:18:51.787Z,42.20
2018-06-14T17:21:20.802Z,41.50
2018-06-14T17:23:49.401Z,41.20
2018-06-14T17:26:21.277Z,42.20
2018-06-14T17:28:50.647Z,43.20
2018-06-14T17:31:19.800Z,41.90
2018-06-14T17:33:48.531Z,42.90
2018-06-14T17:36:17.236Z,43.20
2018-06-14T17:38:46.227Z,41.50
2018-06-14T17:43:43.640Z,41.20
2018-06-14T17:46:12.402Z,42.00
2018-06-14T17:48:40.984Z,42.40
2018-06-14T17:51:09.523Z,42.00
2018-06-14T17:53:38.446Z,41.70
2018-06-14T17:56:07.068Z,42.70
2018-06-14T17:58:35.602Z,43.60
2018-06-14T18:01:04.145Z,41.90
2018-06-14T18:03:32.853Z,42.20
2018-06-14T18:06:02.112Z,42.90
2018-06-14T18:08:30.423Z,43.70
2018-06-14T18:10:59.144Z,42.90
2018-06-14T18:13:27.748Z,43.50
2018-06-14T18:15:56.296Z,44.60
2018-06-14T18:18:24.888Z,45.60
2018-06-14T18:20:53.596Z,45.60
2018-06-14T18:23:22.417Z,44.30
2018-06-14T18:25:51.081Z,45.70
2018-06-14T18:28:19.691Z,46.50
2018-06-14T18:30:48.676Z,45.90
2018-06-14T18:33:17.423Z,45.80
2018-06-14T18:35:45.958Z,44.70
2018-06-14T18:38:14.731Z,44.30
2018-06-14T18:40:43.348Z,44.50
2018-06-14T18:43:11.930Z,44.60
2018-06-14T18:45:40.560Z,45.30
2018-06-14T18:48:09.173Z,45.50
2018-06-14T18:50:37.859Z,45.80
2018-06-14T18:53:06.633Z,46.10
2018-06-14T18:55:35.387Z,46.40
2018-06-14T18:58:04.139Z,46.70
2018-06-14T19:00:32.771Z,46.80
2018-06-14T19:03:01.908Z,47.10
2018-06-14T19:05:30.598Z,47.40
2018-06-14T19:07:59.336Z,47.60
2018-06-14T19:10:27.889Z,47.50
2018-06-14T19:12:56.749Z,47.40
2018-06-14T19:15:25.348Z,47.60
2018-06-14T19:17:53.935Z,47.70
2018-06-14T19:20:22.657Z,48.00
2018-06-14T19:25:19.655Z,48.80
2018-06-14T19:27:48.315Z,49.20
2018-06-14T19:30:17.401Z,49.80
2018-06-14T19:35:14.826Z,50.90
2018-06-14T19:37:43.526Z,51.40
2018-06-14T19:40:12.338Z,51.60
2018-06-14T19:42:41.028Z,51.70
2018-06-14T19:45:24.048Z,51.80
2018-06-14T19:47:52.667Z,52.30
2018-06-14T19:50:21.403Z,52.50
2018-06-14T19:52:49.971Z,52.70
2018-06-14T19:55:18.575Z,52.70
2018-06-14T19:57:47.259Z,52.60
2018-06-14T20:00:16.036Z,52.80
2018-06-14T20:02:44.667Z,52.80
2018-06-14T20:05:13.298Z,53.00
2018-06-14T20:07:41.898Z,53.40
2018-06-14T20:10:10.458Z,53.60
2018-06-14T20:12:39.073Z,53.90
2018-06-14T20:15:07.700Z,54.30
2018-06-14T20:17:36.579Z,54.50
2018-06-14T20:22:34.193Z,54.70
2018-06-14T20:25:02.884Z,54.60
2018-06-14T20:27:31.438Z,54.80
2018-06-14T20:30:00.199Z,55.00
2018-06-14T20:32:28.859Z,55.20
2018-06-14T20:34:57.487Z,55.10
2018-06-14T20:37:26.124Z,55.10
2018-06-14T20:39:54.755Z,55.20
2018-06-14T20:42:23.464Z,55.30
2018-06-14T20:44:52.190Z,55.60
2018-06-14T20:47:20.803Z,55.80
2018-06-14T20:49:49.503Z,55.80
2018-06-14T20:54:46.676Z,56.60
2018-06-14T20:57:15.228Z,56.70
2018-06-14T21:02:12.115Z,56.70
2018-06-14T21:04:40.701Z,56.70
2018-06-14T21:07:09.325Z,56.70
2018-06-14T21:09:37.980Z,56.80
2018-06-14T21:12:06.634Z,56.90
2018-06-14T21:14:35.212Z,57.00
2018-06-14T21:17:03.784Z,56.80
2018-06-14T21:19:32.376Z,56.90
2018-06-14T21:22:01.054Z,56.80
2018-06-14T21:24:29.670Z,57.00
2018-06-14T21:26:58.374Z,56.90
2018-06-14T21:29:27.044Z,56.90
2018-06-14T21:31:55.596Z,57.10
2018-06-14T21:34:24.227Z,57.00
2018-06-14T21:36:52.898Z,57.10
2018-06-14T21:39:21.552Z,57.10
2018-06-14T21:41:50.699Z,57.20
2018-06-14T21:44:19.369Z,57.00
2018-06-14T21:46:48.340Z,56.80
2018-06-14T21:49:16.995Z,56.60
2018-06-14T21:51:45.579Z,56.70
2018-06-14T21:54:14.231Z,57.00
2018-06-14T21:56:42.904Z,57.40
2018-06-14T21:59:11.499Z,57.30
2018-06-14T22:01:40.230Z,57.40
2018-06-14T22:04:08.844Z,57.50
2018-06-14T22:09:07.345Z,57.40
2018-06-14T22:11:36.066Z,57.50
2018-06-14T22:14:04.595Z,57.60
2018-06-14T22:16:33.189Z,57.50
2018-06-14T22:19:01.748Z,57.60
2018-06-14T22:21:30.315Z,57.70
2018-06-14T22:23:59.003Z,58.00
2018-06-14T22:26:27.567Z,58.00
2018-06-14T22:28:56.512Z,58.40
2018-06-14T22:31:25.173Z,58.20
2018-06-14T22:34:04.974Z,58.20
2018-06-14T22:36:33.913Z,58.10
2018-06-14T22:39:07.906Z,58.20
2018-06-14T22:41:36.532Z,58.30
2018-06-14T22:44:05.199Z,58.30
2018-06-14T22:46:33.851Z,58.00
2018-06-14T22:49:02.350Z,57.90
2018-06-14T22:52:13.511Z,58.40
2018-06-14T22:54:42.114Z,58.40
2018-06-14T22:57:10.718Z,58.60
2018-06-14T22:59:39.280Z,58.60
2018-06-14T23:02:07.846Z,58.50
2018-06-14T23:04:36.507Z,58.40
2018-06-14T23:07:05.030Z,58.30
2018-06-14T23:10:42.896Z,58.40
2018-06-14T23:13:12.945Z,58.60
2018-06-14T23:15:41.847Z,59.50
2018-06-14T23:18:11.155Z,58.80
2018-06-14T23:20:40.126Z,58.80
2018-06-14T23:23:09.068Z,58.80
2018-06-14T23:25:38.184Z,58.70
2018-06-14T23:28:06.780Z,58.60
2018-06-14T23:30:35.505Z,58.50
2018-06-14T23:33:04.136Z,58.80
2018-06-14T23:35:32.777Z,58.90
2018-06-14T23:38:01.465Z,58.90
2018-06-14T23:40:30.009Z,59.00
2018-06-14T23:42:58.593Z,59.10
2018-06-14T23:45:27.131Z,59.10
2018-06-14T23:47:55.753Z,59.20
2018-06-14T23:50:24.329Z,59.20
2018-06-14T23:52:52.931Z,59.30
2018-06-14T23:55:22.884Z,59.40
2018-06-14T23:57:51.513Z,59.40
